createdAt,value
2023-03-24T00:00:04.225Z,985.29
2023-03-24T00:01:04.217Z,985.25
2023-03-24T00:02:04.267Z,985.21
2023-03-24T00:03:04.256Z,985.22
2023-03-24T00:04:04.177Z,985.20
2023-03-24T00:05:04.115Z,985.15
2023-03-24T00:06:04.095Z,985.15
2023-03-24T00:07:04.072Z,985.16
2023-03-24T00:08:04.655Z,985.16
2023-03-24T00:09:04.032Z,985.13
2023-03-24T00:10:04.012Z,985.13
2023-03-24T00:11:03.996Z,985.10
2023-03-24T00:12:03.959Z,985.12
2023-03-24T00:13:03.961Z,985.12
2023-03-24T00:14:03.909Z,985.07
2023-03-24T00:15:03.909Z,985.07
2023-03-24T00:16:03.911Z,985.04
2023-03-24T00:17:03.856Z,985.03
2023-03-24T00:18:03.857Z,985.04
2023-03-24T00:19:03.834Z,985.03
2023-03-24T00:20:03.809Z,985.03
2023-03-24T00:21:03.771Z,984.98
2023-03-24T00:22:03.767Z,984.99
2023-03-24T00:23:03.721Z,984.96
2023-03-24T00:24:03.707Z,984.96
2023-03-24T00:25:03.677Z,984.94
2023-03-24T00:26:03.649Z,984.93
2023-03-24T00:27:03.687Z,984.91
2023-03-24T00:28:03.599Z,984.95
2023-03-24T00:29:03.587Z,984.93
2023-03-24T00:30:03.556Z,984.93
2023-03-24T00:31:03.562Z,984.91
2023-03-24T00:32:03.519Z,984.85
2023-03-24T00:33:03.507Z,984.84
2023-03-24T00:34:03.478Z,984.81
2023-03-24T00:35:03.452Z,984.77
2023-03-24T00:36:03.454Z,984.72
2023-03-24T00:37:03.423Z,984.68
2023-03-24T00:38:03.387Z,984.66
2023-03-24T00:39:03.401Z,984.62
2023-03-24T00:40:03.340Z,984.57
2023-03-24T00:41:03.318Z,984.54
2023-03-24T00:42:03.291Z,984.52
2023-03-24T00:43:03.275Z,984.46
2023-03-24T00:44:03.272Z,984.41
2023-03-24T00:45:03.232Z,984.32
2023-03-24T00:46:03.196Z,984.37
2023-03-24T00:47:03.223Z,984.33
2023-03-24T00:48:03.195Z,984.33
2023-03-24T00:49:03.146Z,984.31
2023-03-24T00:50:03.103Z,984.36
2023-03-24T00:51:03.114Z,984.30
2023-03-24T00:52:03.063Z,984.32
2023-03-24T00:53:03.064Z,984.27
2023-03-24T00:54:03.037Z,984.27
2023-03-24T00:55:03.003Z,984.28
2023-03-24T00:56:02.965Z,984.26
2023-03-24T00:57:03.997Z,984.26
2023-03-24T00:58:02.955Z,984.26
2023-03-24T00:59:02.913Z,984.24
2023-03-24T01:00:02.884Z,984.22
2023-03-24T01:01:02.942Z,984.21
2023-03-24T01:02:02.960Z,984.21
2023-03-24T01:03:02.893Z,984.18
2023-03-24T01:04:02.793Z,984.21
2023-03-24T01:05:02.780Z,984.17
2023-03-24T01:06:03.996Z,984.19
2023-03-24T01:07:02.720Z,984.25
2023-03-24T01:08:02.817Z,984.22
2023-03-24T01:09:02.690Z,984.11
2023-03-24T01:10:02.659Z,984.09
2023-03-24T01:11:02.630Z,984.06
2023-03-24T01:12:02.614Z,984.00
2023-03-24T01:13:02.583Z,984.00
2023-03-24T01:14:02.558Z,983.98
2023-03-24T01:15:02.550Z,983.98
2023-03-24T01:16:02.549Z,983.96
2023-03-24T01:17:02.497Z,983.93
2023-03-24T01:18:02.592Z,983.92
2023-03-24T01:19:02.447Z,983.83
2023-03-24T01:20:02.432Z,983.81
2023-03-24T01:21:02.392Z,983.79
2023-03-24T01:22:02.386Z,983.74
2023-03-24T01:23:02.362Z,983.72
2023-03-24T01:24:02.329Z,983.71
2023-03-24T01:25:02.337Z,983.69
2023-03-24T01:26:02.276Z,983.69
2023-03-24T01:27:02.254Z,983.71
2023-03-24T01:28:02.228Z,983.68
2023-03-24T01:29:02.222Z,983.68
2023-03-24T01:30:02.187Z,983.66
2023-03-24T01:31:02.184Z,983.66
2023-03-24T01:32:02.198Z,983.66
2023-03-24T01:33:02.171Z,983.69
2023-03-24T01:34:02.131Z,983.68
2023-03-24T01:35:02.115Z,983.64
2023-03-24T01:36:02.095Z,983.67
2023-03-24T01:37:02.033Z,983.62
2023-03-24T01:38:02.016Z,983.64
2023-03-24T01:39:01.993Z,983.63
2023-03-24T01:40:01.957Z,983.63
2023-03-24T01:41:01.941Z,983.61
2023-03-24T01:42:01.932Z,983.62
2023-03-24T01:43:01.900Z,983.58
2023-03-24T01:44:01.874Z,983.59
2023-03-24T01:45:01.901Z,983.53
2023-03-24T01:46:01.854Z,983.55
2023-03-24T01:47:01.798Z,983.48
2023-03-24T01:48:01.820Z,983.45
2023-03-24T01:49:01.763Z,983.42
2023-03-24T01:50:01.725Z,983.41
2023-03-24T01:51:01.704Z,983.44
2023-03-24T01:52:01.686Z,983.44
2023-03-24T01:53:01.684Z,983.41
2023-03-24T01:54:01.648Z,983.39
2023-03-24T01:55:01.627Z,983.37
2023-03-24T01:56:01.594Z,983.38
2023-03-24T01:57:01.635Z,983.38
2023-03-24T01:58:01.540Z,983.37
2023-03-24T01:59:01.533Z,983.39
2023-03-24T02:00:01.506Z,983.41
2023-03-24T02:01:01.496Z,983.32
2023-03-24T02:02:01.456Z,983.34
2023-03-24T02:03:01.473Z,983.35
2023-03-24T02:04:01.471Z,983.34
2023-03-24T02:05:01.386Z,983.30
2023-03-24T02:06:01.364Z,983.28
2023-03-24T02:07:01.338Z,983.29
2023-03-24T02:08:01.329Z,983.29
2023-03-24T02:09:01.360Z,983.28
2023-03-24T02:10:01.268Z,983.28
2023-03-24T02:11:01.252Z,983.26
2023-03-24T02:12:01.233Z,983.23
2023-03-24T02:13:01.203Z,983.23
2023-03-24T02:14:01.171Z,983.21
2023-03-24T02:15:01.168Z,983.21
2023-03-24T02:16:01.235Z,983.23
2023-03-24T02:17:01.113Z,983.27
2023-03-24T02:18:01.151Z,983.24
2023-03-24T02:19:01.169Z,983.20
2023-03-24T02:20:01.044Z,983.23
2023-03-24T02:21:01.024Z,983.19
2023-03-24T02:22:01.015Z,983.28
2023-03-24T02:23:00.988Z,983.17
2023-03-24T02:24:00.953Z,983.19
2023-03-24T02:25:00.954Z,983.15
2023-03-24T02:26:00.947Z,983.18
2023-03-24T02:27:00.883Z,983.13
2023-03-24T02:28:00.878Z,983.10
2023-03-24T02:29:00.916Z,983.08
2023-03-24T02:30:00.832Z,983.04
2023-03-24T02:31:00.887Z,982.95
2023-03-24T02:32:00.823Z,983.01
2023-03-24T02:33:00.793Z,982.98
2023-03-24T02:34:00.726Z,982.94
2023-03-24T02:35:00.716Z,982.92
2023-03-24T02:36:00.683Z,982.93
2023-03-24T02:37:00.711Z,982.89
2023-03-24T02:38:00.635Z,982.88
2023-03-24T02:39:00.616Z,982.92
2023-03-24T02:40:00.598Z,982.90
2023-03-24T02:41:00.569Z,982.89
2023-03-24T02:42:00.613Z,982.94
2023-03-24T02:43:00.522Z,982.91
2023-03-24T02:44:00.507Z,982.91
2023-03-24T02:45:00.492Z,982.89
2023-03-24T02:46:00.487Z,982.90
2023-03-24T02:47:00.433Z,982.85
2023-03-24T02:48:00.455Z,982.81
2023-03-24T02:49:00.387Z,982.74
2023-03-24T02:50:00.365Z,982.75
2023-03-24T02:51:00.422Z,982.73
2023-03-24T02:52:00.312Z,982.70
2023-03-24T02:53:00.290Z,982.70
2023-03-24T02:54:00.263Z,982.65
2023-03-24T02:55:00.246Z,982.66
2023-03-24T02:56:00.268Z,982.59
2023-03-24T02:57:00.218Z,982.62
2023-03-24T02:58:00.185Z,982.58
2023-03-24T02:59:00.170Z,982.58
2023-03-24T03:00:00.150Z,982.57
2023-03-24T03:01:00.165Z,982.54
2023-03-24T03:02:00.102Z,982.56
2023-03-24T03:03:00.160Z,982.62
2023-03-24T03:04:00.073Z,982.64
2023-03-24T03:05:00.030Z,982.63
2023-03-24T03:06:00.005Z,982.69
2023-03-24T03:06:59.986Z,982.70
2023-03-24T03:07:59.947Z,982.76
2023-03-24T03:08:59.934Z,982.68
2023-03-24T03:09:59.901Z,982.60
2023-03-24T03:10:59.874Z,982.65
2023-03-24T03:11:59.851Z,982.71
2023-03-24T03:12:59.818Z,982.73
2023-03-24T03:13:59.820Z,982.72
2023-03-24T03:14:59.816Z,982.72
2023-03-24T03:15:59.817Z,982.70
2023-03-24T03:16:59.735Z,982.73
2023-03-24T03:17:59.745Z,982.75
2023-03-24T03:18:59.695Z,982.76
2023-03-24T03:19:59.671Z,982.79
2023-03-24T03:20:59.680Z,982.72
2023-03-24T03:21:59.634Z,982.72
2023-03-24T03:22:59.609Z,982.69
2023-03-24T03:23:59.589Z,982.76
2023-03-24T03:24:59.563Z,982.75
2023-03-24T03:25:59.541Z,982.75
2023-03-24T03:26:59.514Z,982.73
2023-03-24T03:27:59.493Z,982.74
2023-03-24T03:28:59.477Z,982.71
2023-03-24T03:29:59.450Z,982.69
2023-03-24T03:30:59.460Z,982.70
2023-03-24T03:31:59.494Z,982.66
2023-03-24T03:32:59.489Z,982.70
2023-03-24T03:33:59.405Z,982.68
2023-03-24T03:34:59.343Z,982.67
2023-03-24T03:35:59.454Z,982.68
2023-03-24T03:36:59.296Z,982.70
2023-03-24T03:37:59.327Z,982.73
2023-03-24T03:38:59.406Z,982.65
2023-03-24T03:39:59.310Z,982.68
2023-03-24T03:40:59.318Z,982.69
2023-03-24T03:41:59.206Z,982.65
2023-03-24T03:42:59.234Z,982.69
2023-03-24T03:43:59.162Z,982.65
2023-03-24T03:44:59.168Z,982.58
2023-03-24T03:45:59.175Z,982.64
2023-03-24T03:46:59.244Z,982.66
2023-03-24T03:47:59.445Z,982.70
2023-03-24T03:48:59.043Z,982.54
2023-03-24T03:49:59.252Z,982.59
2023-03-24T03:51:59.234Z,982.69
2023-03-24T03:52:58.941Z,982.59
2023-03-24T03:53:58.921Z,982.60
2023-03-24T03:54:58.883Z,982.71
2023-03-24T03:55:58.867Z,982.76
2023-03-24T03:56:58.859Z,982.63
2023-03-24T03:57:58.835Z,982.65
2023-03-24T03:58:58.823Z,982.66
2023-03-24T03:59:58.796Z,982.70
2023-03-24T04:00:58.835Z,982.66
2023-03-24T04:01:58.840Z,982.70
2023-03-24T04:02:58.788Z,982.69
2023-03-24T04:03:58.889Z,982.71
2023-03-24T04:05:06.003Z,982.63
2023-03-24T04:05:58.653Z,982.74
2023-03-24T04:06:58.631Z,982.69
2023-03-24T04:07:58.629Z,982.63
2023-03-24T04:08:58.583Z,982.69
2023-03-24T04:09:58.567Z,982.74
2023-03-24T04:10:58.549Z,982.76
2023-03-24T04:11:58.539Z,982.75
2023-03-24T04:12:58.504Z,982.75
2023-03-24T04:13:58.490Z,982.75
2023-03-24T04:14:58.479Z,982.81
2023-03-24T04:15:58.455Z,982.77
2023-03-24T04:16:58.440Z,982.77
2023-03-24T04:17:58.426Z,982.78
2023-03-24T04:18:58.442Z,982.84
2023-03-24T04:19:58.648Z,982.90
2023-03-24T04:20:58.373Z,982.84
2023-03-24T04:21:58.328Z,982.89
2023-03-24T04:22:58.316Z,982.94
2023-03-24T04:23:58.303Z,982.98
2023-03-24T04:24:58.281Z,982.95
2023-03-24T04:25:58.239Z,982.91
2023-03-24T04:26:58.215Z,983.15
2023-03-24T04:27:58.196Z,983.09
2023-03-24T04:28:58.239Z,983.03
2023-03-24T04:29:58.164Z,983.23
2023-03-24T04:30:58.138Z,983.11
2023-03-24T04:31:58.114Z,983.15
2023-03-24T04:32:58.115Z,983.03
2023-03-24T04:33:58.079Z,983.25
2023-03-24T04:34:58.054Z,983.32
2023-03-24T04:35:58.102Z,983.19
2023-03-24T04:36:58.005Z,983.16
2023-03-24T04:37:57.992Z,983.25
2023-03-24T04:38:57.986Z,983.24
2023-03-24T04:39:57.946Z,983.26
2023-03-24T04:40:57.943Z,983.31
2023-03-24T04:41:57.979Z,983.33
2023-03-24T04:42:57.923Z,983.40
2023-03-24T04:43:57.933Z,983.32
2023-03-24T04:44:57.875Z,983.34
2023-03-24T04:45:58.191Z,983.35
2023-03-24T04:46:57.848Z,983.34
2023-03-24T04:47:57.822Z,983.32
2023-03-24T04:48:57.776Z,983.30
2023-03-24T04:49:57.750Z,983.36
2023-03-24T04:50:57.805Z,983.30
2023-03-24T04:51:57.710Z,983.39
2023-03-24T04:52:57.680Z,983.38
2023-03-24T04:53:57.670Z,983.42
2023-03-24T04:54:57.677Z,983.37
2023-03-24T04:55:57.631Z,983.37
2023-03-24T04:56:57.650Z,983.36
2023-03-24T04:57:57.578Z,983.43
2023-03-24T04:58:57.551Z,983.35
2023-03-24T04:59:57.537Z,983.39
2023-03-24T05:00:57.542Z,983.41
2023-03-24T05:01:57.488Z,983.41
2023-03-24T05:02:57.464Z,983.39
2023-03-24T05:03:57.481Z,983.56
2023-03-24T05:04:57.420Z,983.51
2023-03-24T05:05:57.395Z,983.51
2023-03-24T05:06:57.381Z,983.46
2023-03-24T05:07:57.372Z,983.50
2023-03-24T05:08:57.347Z,983.45
2023-03-24T05:09:57.314Z,983.53
2023-03-24T05:10:57.283Z,983.46
2023-03-24T05:11:57.624Z,983.51
2023-03-24T05:12:57.255Z,983.57
2023-03-24T05:13:57.222Z,983.51
2023-03-24T05:14:57.211Z,983.50
2023-03-24T05:15:57.175Z,983.61
2023-03-24T05:16:57.148Z,983.58
2023-03-24T05:17:57.237Z,983.51
2023-03-24T05:18:57.133Z,983.54
2023-03-24T05:19:57.089Z,983.51
2023-03-24T05:20:57.089Z,983.47
2023-03-24T05:21:57.060Z,983.49
2023-03-24T05:22:57.020Z,983.45
2023-03-24T05:23:56.995Z,983.41
2023-03-24T05:24:56.985Z,983.29
2023-03-24T05:25:56.960Z,983.31
2023-03-24T05:26:56.921Z,983.38
2023-03-24T05:27:56.970Z,983.38
2023-03-24T05:28:56.902Z,983.29
2023-03-24T05:29:56.859Z,983.26
2023-03-24T05:30:56.852Z,983.24
2023-03-24T05:31:56.809Z,983.31
2023-03-24T05:32:56.836Z,983.29
2023-03-24T05:33:56.791Z,983.30
2023-03-24T05:34:56.753Z,983.31
2023-03-24T05:35:56.757Z,983.19
2023-03-24T05:36:56.698Z,983.17
2023-03-24T05:37:56.680Z,983.10
2023-03-24T05:38:56.664Z,983.10
2023-03-24T05:39:56.653Z,983.10
2023-03-24T05:40:56.600Z,983.12
2023-03-24T05:41:56.584Z,983.14
2023-03-24T05:42:56.565Z,983.10
2023-03-24T05:43:56.559Z,983.05
2023-03-24T05:44:56.525Z,983.01
2023-03-24T05:45:56.534Z,983.05
2023-03-24T05:46:56.469Z,983.03
2023-03-24T05:47:56.535Z,983.01
2023-03-24T05:48:56.429Z,982.99
2023-03-24T05:49:56.429Z,983.03
2023-03-24T05:50:56.371Z,983.04
2023-03-24T05:51:56.361Z,983.11
2023-03-24T05:52:56.334Z,983.10
2023-03-24T05:53:56.320Z,983.14
2023-03-24T05:54:56.316Z,983.16
2023-03-24T05:55:56.285Z,983.21
2023-03-24T05:56:56.265Z,983.25
2023-03-24T05:57:56.224Z,983.23
2023-03-24T05:58:56.201Z,983.31
2023-03-24T05:59:56.180Z,983.28
2023-03-24T06:00:56.145Z,983.21
2023-03-24T06:01:56.144Z,983.22
2023-03-24T06:02:56.156Z,983.19
2023-03-24T06:03:56.167Z,983.19
2023-03-24T06:04:56.063Z,983.22
2023-03-24T06:05:56.042Z,983.18
2023-03-24T06:06:56.016Z,983.19
2023-03-24T06:07:55.995Z,983.23
2023-03-24T06:08:55.975Z,983.29
2023-03-24T06:09:55.961Z,983.35
2023-03-24T06:10:55.916Z,983.28
2023-03-24T06:11:55.903Z,983.30
2023-03-24T06:12:55.952Z,983.29
2023-03-24T06:13:55.856Z,983.29
2023-03-24T06:14:55.831Z,983.31
2023-03-24T06:15:55.813Z,983.38
2023-03-24T06:16:55.797Z,983.33
2023-03-24T06:17:55.824Z,983.35
2023-03-24T06:18:55.742Z,983.44
2023-03-24T06:19:55.724Z,983.45
2023-03-24T06:20:55.691Z,983.49
2023-03-24T06:21:55.674Z,983.49
2023-03-24T06:22:55.650Z,983.45
2023-03-24T06:23:55.625Z,983.45
2023-03-24T06:24:55.630Z,983.36
2023-03-24T06:25:55.596Z,983.37
2023-03-24T06:26:55.559Z,983.36
2023-03-24T06:27:55.566Z,983.43
2023-03-24T06:28:55.511Z,983.44
2023-03-24T06:29:55.493Z,983.46
2023-03-24T06:30:55.493Z,983.47
2023-03-24T06:31:55.448Z,983.45
2023-03-24T06:32:55.460Z,983.50
2023-03-24T06:33:55.403Z,983.47
2023-03-24T06:34:55.396Z,983.53
2023-03-24T06:35:55.423Z,983.47
2023-03-24T06:36:56.102Z,983.48
2023-03-24T06:37:55.326Z,983.45
2023-03-24T06:38:55.350Z,983.46
2023-03-24T06:39:55.273Z,983.50
2023-03-24T06:40:55.259Z,983.44
2023-03-24T06:41:55.225Z,983.46
2023-03-24T06:42:55.203Z,983.38
2023-03-24T06:43:55.198Z,983.33
2023-03-24T06:44:55.166Z,983.33
2023-03-24T06:45:55.141Z,983.31
2023-03-24T06:46:55.155Z,983.33
2023-03-24T06:47:55.180Z,983.29
2023-03-24T06:48:55.079Z,983.37
2023-03-24T06:49:56.089Z,983.42
2023-03-24T06:50:55.034Z,983.45
2023-03-24T06:51:55.003Z,983.49
2023-03-24T06:52:54.986Z,983.51
2023-03-24T06:53:54.977Z,983.54
2023-03-24T06:54:54.988Z,983.56
2023-03-24T06:55:54.920Z,983.61
2023-03-24T06:56:54.992Z,983.59
2023-03-24T06:57:54.867Z,983.61
2023-03-24T06:58:54.849Z,983.57
2023-03-24T06:59:54.837Z,983.60
2023-03-24T07:00:54.803Z,983.64
2023-03-24T07:01:54.807Z,983.65
2023-03-24T07:02:54.804Z,983.64
2023-03-24T07:03:54.787Z,983.59
2023-03-24T07:04:54.741Z,983.63
2023-03-24T07:05:54.692Z,983.67
2023-03-24T07:07:08.647Z,983.59
2023-03-24T07:08:24.124Z,983.72
2023-03-24T07:08:54.621Z,983.64
2023-03-24T07:09:54.815Z,983.73
2023-03-24T07:10:54.588Z,983.71
2023-03-24T07:11:54.580Z,983.75
2023-03-24T07:12:54.534Z,983.69
2023-03-24T07:13:54.520Z,983.73
2023-03-24T07:14:54.520Z,983.78
2023-03-24T07:15:54.545Z,983.77
2023-03-24T07:16:54.453Z,983.76
2023-03-24T07:17:54.460Z,983.73
2023-03-24T07:18:54.406Z,983.70
2023-03-24T07:19:54.385Z,983.75
2023-03-24T07:20:54.363Z,983.74
2023-03-24T07:21:54.344Z,983.72
2023-03-24T07:22:54.330Z,983.75
2023-03-24T07:23:54.302Z,983.77
2023-03-24T07:24:54.515Z,983.82
2023-03-24T07:25:54.246Z,983.79
2023-03-24T07:26:54.244Z,983.83
2023-03-24T07:27:54.206Z,983.86
2023-03-24T07:28:54.258Z,983.84
2023-03-24T07:29:54.165Z,983.85
2023-03-24T07:30:55.467Z,983.95
2023-03-24T07:31:54.181Z,983.88
2023-03-24T07:32:54.212Z,983.93
2023-03-24T07:33:54.095Z,983.88
2023-03-24T07:34:54.063Z,983.89
2023-03-24T07:35:54.072Z,983.84
2023-03-24T07:36:54.022Z,983.94
2023-03-24T07:37:53.998Z,983.96
2023-03-24T07:38:53.973Z,984.00
2023-03-24T07:39:53.955Z,983.92
2023-03-24T07:40:54.055Z,983.96
2023-03-24T07:41:53.921Z,983.92
2023-03-24T07:42:53.892Z,983.85
2023-03-24T07:43:53.857Z,983.91
2023-03-24T07:44:53.845Z,983.91
2023-03-24T07:45:53.849Z,983.90
2023-03-24T07:46:53.810Z,983.84
2023-03-24T07:47:53.831Z,983.84
2023-03-24T07:48:53.765Z,983.85
2023-03-24T07:49:53.737Z,983.80
2023-03-24T07:50:53.716Z,983.85
2023-03-24T07:51:53.690Z,983.85
2023-03-24T07:52:53.768Z,983.91
2023-03-24T07:53:53.643Z,983.92
2023-03-24T07:54:53.693Z,983.93
2023-03-24T07:55:53.613Z,983.89
2023-03-24T07:56:53.610Z,983.94
2023-03-24T07:57:53.564Z,983.94
2023-03-24T07:58:53.571Z,983.91
2023-03-24T07:59:53.516Z,983.93
2023-03-24T08:00:53.504Z,983.86
2023-03-24T08:01:56.714Z,983.84
2023-03-24T08:02:53.798Z,983.79
2023-03-24T08:03:53.719Z,983.82
2023-03-24T08:04:53.415Z,983.79
2023-03-24T08:05:53.655Z,983.83
2023-03-24T08:06:53.404Z,983.85
2023-03-24T08:07:53.494Z,983.86
2023-03-24T08:08:53.326Z,983.86
2023-03-24T08:09:53.301Z,983.91
2023-03-24T08:10:53.281Z,983.91
2023-03-24T08:11:53.278Z,983.89
2023-03-24T08:12:53.248Z,983.92
2023-03-24T08:13:53.220Z,983.95
2023-03-24T08:14:53.438Z,983.91
2023-03-24T08:15:53.195Z,983.94
2023-03-24T08:16:53.255Z,983.92
2023-03-24T08:17:53.186Z,983.85
2023-03-24T08:18:53.125Z,983.80
2023-03-24T08:19:59.700Z,983.78
2023-03-24T08:20:53.070Z,983.76
2023-03-24T08:21:53.041Z,983.78
2023-03-24T08:22:53.027Z,983.73
2023-03-24T08:23:52.997Z,983.69
2023-03-24T08:24:52.993Z,983.70
2023-03-24T08:25:52.975Z,983.71
2023-03-24T08:26:52.938Z,983.76
2023-03-24T08:27:52.953Z,983.82
2023-03-24T08:28:52.912Z,983.87
2023-03-24T08:29:52.876Z,983.85
2023-03-24T08:30:52.900Z,983.81
2023-03-24T08:31:52.842Z,983.87
2023-03-24T08:32:52.974Z,983.82
2023-03-24T08:33:52.792Z,983.82
2023-03-24T08:34:52.760Z,983.80
2023-03-24T08:35:52.902Z,983.74
2023-03-24T08:36:52.722Z,983.83
2023-03-24T08:37:52.741Z,983.90
2023-03-24T08:38:52.683Z,983.94
2023-03-24T08:39:52.661Z,983.99
2023-03-24T08:40:52.658Z,984.06
2023-03-24T08:41:52.639Z,984.04
2023-03-24T08:42:52.616Z,984.03
2023-03-24T08:43:52.571Z,984.03
2023-03-24T08:44:52.556Z,984.01
2023-03-24T08:45:52.555Z,983.99
2023-03-24T08:46:52.617Z,983.95
2023-03-24T08:47:52.526Z,983.98
2023-03-24T08:48:52.461Z,983.97
2023-03-24T08:49:52.434Z,983.94
2023-03-24T08:50:52.421Z,983.91
2023-03-24T08:51:52.472Z,983.85
2023-03-24T08:52:52.375Z,983.84
2023-03-24T08:53:52.350Z,983.85
2023-03-24T08:54:52.335Z,983.86
2023-03-24T08:55:52.325Z,983.88
2023-03-24T08:56:52.367Z,983.89
2023-03-24T08:57:52.262Z,983.98
2023-03-24T08:58:52.237Z,983.90
2023-03-24T08:59:52.229Z,983.93
2023-03-24T09:00:52.198Z,983.95
2023-03-24T09:01:52.204Z,983.86
2023-03-24T09:02:52.188Z,983.86
2023-03-24T09:03:52.149Z,983.86
2023-03-24T09:04:52.131Z,983.91
2023-03-24T09:05:52.091Z,983.89
2023-03-24T09:06:52.076Z,983.86
2023-03-24T09:07:52.065Z,983.93
2023-03-24T09:08:52.031Z,983.92
2023-03-24T09:09:52.010Z,983.96
2023-03-24T09:10:51.985Z,983.90
2023-03-24T09:11:51.963Z,983.83
2023-03-24T09:12:51.954Z,983.78
2023-03-24T09:13:51.930Z,983.90
2023-03-24T09:14:51.939Z,983.97
2023-03-24T09:15:52.331Z,983.89
2023-03-24T09:16:51.870Z,983.89
2023-03-24T09:17:51.869Z,984.00
2023-03-24T09:18:51.825Z,983.94
2023-03-24T09:19:51.800Z,983.96
2023-03-24T09:20:52.024Z,983.94
2023-03-24T09:21:51.762Z,983.92
2023-03-24T09:22:51.734Z,983.93
2023-03-24T09:23:51.718Z,983.91
2023-03-24T09:24:51.718Z,983.92
2023-03-24T09:25:51.666Z,983.94
2023-03-24T09:26:51.659Z,983.85
2023-03-24T09:27:51.620Z,983.91
2023-03-24T09:28:51.627Z,983.97
2023-03-24T09:29:51.580Z,983.94
2023-03-24T09:30:51.763Z,983.93
2023-03-24T09:31:51.572Z,983.90
2023-03-24T09:32:51.529Z,983.97
2023-03-24T09:33:51.496Z,983.92
2023-03-24T09:34:51.477Z,983.99
2023-03-24T09:35:51.487Z,983.99
2023-03-24T09:36:51.438Z,984.00
2023-03-24T09:37:51.402Z,984.01
2023-03-24T09:38:51.405Z,984.02
2023-03-24T09:39:51.374Z,983.98
2023-03-24T09:40:51.342Z,983.92
2023-03-24T09:41:51.324Z,983.90
2023-03-24T09:42:51.356Z,983.89
2023-03-24T09:43:51.274Z,983.89
2023-03-24T09:44:51.264Z,983.84
2023-03-24T09:45:51.244Z,983.83
2023-03-24T09:46:51.325Z,983.86
2023-03-24T09:47:51.237Z,983.90
2023-03-24T09:48:51.192Z,983.90
2023-03-24T09:49:51.153Z,983.94
2023-03-24T09:50:51.150Z,984.00
2023-03-24T09:51:51.127Z,983.91
2023-03-24T09:52:51.096Z,983.96
2023-03-24T09:53:51.070Z,983.94
2023-03-24T09:54:51.054Z,983.89
2023-03-24T09:55:51.123Z,983.95
2023-03-24T09:56:51.956Z,983.94
2023-03-24T09:57:50.983Z,984.00
2023-03-24T09:58:50.990Z,984.04
2023-03-24T09:59:50.928Z,984.09
2023-03-24T10:00:51.251Z,984.04
2023-03-24T10:01:50.891Z,984.02
2023-03-24T10:02:52.494Z,984.01
2023-03-24T10:03:51.053Z,984.04
2023-03-24T10:04:50.829Z,983.95
2023-03-24T10:05:50.853Z,983.98
2023-03-24T10:06:50.792Z,984.01
2023-03-24T10:07:50.759Z,984.03
2023-03-24T10:08:50.753Z,983.99
2023-03-24T10:09:50.735Z,984.03
2023-03-24T10:10:50.725Z,984.05
2023-03-24T10:11:50.688Z,984.01
2023-03-24T10:12:50.661Z,984.07
2023-03-24T10:13:50.636Z,983.97
2023-03-24T10:14:50.617Z,984.02
2023-03-24T10:15:50.760Z,984.11
2023-03-24T10:16:50.607Z,984.04
2023-03-24T10:17:50.558Z,984.18
2023-03-24T10:18:50.532Z,984.08
2023-03-24T10:19:50.528Z,984.10
2023-03-24T10:20:50.500Z,984.13
2023-03-24T10:21:50.484Z,984.18
2023-03-24T10:22:50.449Z,984.15
2023-03-24T10:23:50.428Z,984.18
2023-03-24T10:24:50.413Z,984.17
2023-03-24T10:25:50.564Z,984.20
2023-03-24T10:26:50.370Z,984.15
2023-03-24T10:27:50.489Z,984.21
2023-03-24T10:28:50.352Z,984.23
2023-03-24T10:29:50.299Z,984.26
2023-03-24T10:30:50.279Z,984.30
2023-03-24T10:31:50.318Z,984.34
2023-03-24T10:32:50.274Z,984.34
2023-03-24T10:33:50.218Z,984.40
2023-03-24T10:34:50.198Z,984.41
2023-03-24T10:35:50.494Z,984.42
2023-03-24T10:36:50.154Z,984.35
2023-03-24T10:37:50.134Z,984.39
2023-03-24T10:38:50.128Z,984.31
2023-03-24T10:39:50.090Z,984.30
2023-03-24T10:40:50.080Z,984.29
2023-03-24T10:41:50.053Z,984.36
2023-03-24T10:43:07.041Z,984.34
2023-03-24T10:43:49.997Z,984.35
2023-03-24T10:44:49.976Z,984.36
2023-03-24T10:45:50.325Z,984.43
2023-03-24T10:46:49.945Z,984.50
2023-03-24T10:47:49.927Z,984.64
2023-03-24T10:48:49.928Z,984.73
2023-03-24T10:49:49.868Z,984.74
2023-03-24T10:50:49.857Z,984.67
2023-03-24T10:51:49.857Z,984.76
2023-03-24T10:52:49.808Z,984.84
2023-03-24T10:53:49.833Z,984.85
2023-03-24T10:54:49.764Z,984.84
2023-03-24T10:55:49.863Z,984.93
2023-03-24T10:56:49.739Z,985.00
2023-03-24T10:57:49.689Z,985.19
2023-03-24T10:58:49.699Z,985.20
2023-03-24T10:59:49.658Z,985.17
2023-03-24T11:00:49.663Z,985.13
2023-03-24T11:01:49.657Z,985.16
2023-03-24T11:02:49.635Z,985.19
2023-03-24T11:03:49.558Z,985.23
2023-03-24T11:04:49.532Z,985.24
2023-03-24T11:05:49.677Z,985.37
2023-03-24T11:06:49.493Z,985.50
2023-03-24T11:07:49.495Z,985.52
2023-03-24T11:08:49.488Z,985.68
2023-03-24T11:09:49.429Z,985.59
2023-03-24T11:10:49.418Z,985.50
2023-03-24T11:11:49.368Z,985.49
2023-03-24T11:12:49.364Z,985.42
2023-03-24T11:13:49.388Z,985.55
2023-03-24T11:14:49.309Z,985.65
2023-03-24T11:15:49.470Z,985.79
2023-03-24T11:16:49.358Z,986.06
2023-03-24T11:17:49.271Z,986.47
2023-03-24T11:18:49.221Z,986.79
2023-03-24T11:19:49.183Z,986.72
2023-03-24T11:20:49.193Z,986.64
2023-03-24T11:21:49.146Z,986.30
2023-03-24T11:22:49.118Z,986.10
2023-03-24T11:23:49.104Z,986.15
2023-03-24T11:24:49.074Z,986.24
2023-03-24T11:25:49.214Z,986.64
2023-03-24T11:26:49.035Z,986.92
2023-03-24T11:27:49.005Z,987.02
2023-03-24T11:28:48.992Z,987.13
2023-03-24T11:29:48.982Z,987.08
2023-03-24T11:30:48.997Z,986.90
2023-03-24T11:31:48.925Z,986.65
2023-03-24T11:33:48.887Z,985.37
2023-03-24T11:34:48.868Z,985.05
2023-03-24T11:35:56.077Z,984.91
2023-03-24T11:36:48.876Z,984.91
2023-03-24T11:37:48.800Z,984.95
2023-03-24T11:38:48.765Z,984.95
2023-03-24T11:39:48.770Z,985.02
2023-03-24T11:40:48.727Z,984.88
2023-03-24T11:41:48.711Z,984.74
2023-03-24T11:42:48.690Z,985.01
2023-03-24T11:43:48.666Z,985.94
2023-03-24T11:44:48.642Z,986.83
2023-03-24T11:45:48.923Z,986.94
2023-03-24T11:46:48.653Z,986.76
2023-03-24T11:47:48.679Z,986.57
2023-03-24T11:48:48.562Z,986.51
2023-03-24T11:49:48.538Z,986.72
2023-03-24T11:50:48.556Z,986.96
2023-03-24T11:51:48.532Z,986.62
2023-03-24T11:52:48.477Z,986.24
2023-03-24T11:53:48.473Z,985.53
2023-03-24T11:54:48.445Z,985.30
2023-03-24T11:55:48.706Z,984.88
2023-03-24T11:56:48.432Z,984.70
2023-03-24T11:57:48.384Z,984.48
2023-03-24T11:58:48.367Z,984.37
2023-03-24T11:59:48.339Z,984.37
2023-03-24T12:00:48.315Z,984.49
2023-03-24T12:01:48.425Z,984.47
2023-03-24T12:02:48.400Z,984.29
2023-03-24T12:03:48.403Z,984.17
2023-03-24T12:04:48.228Z,984.83
2023-03-24T12:05:50.365Z,985.21
2023-03-24T12:06:48.193Z,985.24
2023-03-24T12:07:48.170Z,985.24
2023-03-24T12:08:48.178Z,985.22
2023-03-24T12:09:48.136Z,985.26
2023-03-24T12:10:48.138Z,985.24
2023-03-24T12:11:48.093Z,985.26
2023-03-24T12:12:48.074Z,985.24
2023-03-24T12:13:48.046Z,985.21
2023-03-24T12:14:48.023Z,985.21
2023-03-24T12:15:48.277Z,985.22
2023-03-24T12:16:48.034Z,985.24
2023-03-24T12:17:48.027Z,985.26
2023-03-24T12:18:47.955Z,985.28
2023-03-24T12:19:47.930Z,985.33
2023-03-24T12:20:47.903Z,985.35
2023-03-24T12:21:47.889Z,985.35
2023-03-24T12:22:47.855Z,985.41
2023-03-24T12:23:47.840Z,985.41
2023-03-24T12:24:47.810Z,985.39
2023-03-24T12:25:48.103Z,985.37
2023-03-24T12:26:47.773Z,985.34
2023-03-24T12:27:47.748Z,985.34
2023-03-24T12:28:47.737Z,985.26
2023-03-24T12:29:47.711Z,985.29